createdAt,value
2023-02-06T00:02:56.112Z,29.05
2023-02-06T00:08:01.827Z,27.42
2023-02-06T00:13:07.269Z,30.77
2023-02-06T00:18:13.040Z,27.70
2023-02-06T00:23:18.704Z,32.20
2023-02-06T00:28:24.239Z,29.27
2023-02-06T00:33:29.797Z,29.95
2023-02-06T00:38:35.778Z,11.45
2023-02-06T00:43:42.748Z,23.38
2023-02-06T00:48:48.330Z,25.15
2023-02-06T00:53:53.626Z,24.00
2023-02-06T00:58:59.083Z,26.15
2023-02-06T01:04:04.186Z,27.40
2023-02-06T01:09:09.598Z,27.23
2023-02-06T01:14:15.342Z,30.73
2023-02-06T01:19:21.581Z,28.08
2023-02-06T01:24:26.827Z,29.00
2023-02-06T01:29:32.373Z,28.17
2023-02-06T01:34:37.734Z,27.17
2023-02-06T01:39:42.974Z,27.33
2023-02-06T01:44:48.347Z,30.92
2023-02-06T01:49:53.995Z,30.45
2023-02-06T01:55:06.436Z,26.20
2023-02-06T02:00:13.501Z,18.77
2023-02-06T02:05:20.770Z,34.90
2023-02-06T02:10:26.468Z,39.08
2023-02-06T02:16:12.870Z,29.23
2023-02-06T02:21:43.224Z,28.00
2023-02-06T02:27:07.137Z,35.75
2023-02-06T02:32:26.172Z,37.95
2023-02-06T02:37:43.971Z,37.85
2023-02-06T02:42:58.718Z,37.75
2023-02-06T02:48:16.688Z,36.97
2023-02-06T02:53:23.222Z,40.83
2023-02-06T02:58:34.441Z,45.65
2023-02-06T03:03:45.044Z,37.97
2023-02-06T03:08:56.561Z,37.80
2023-02-06T03:14:14.361Z,60.30
2023-02-06T03:19:28.072Z,45.38
2023-02-06T03:24:38.729Z,46.97
2023-02-06T03:29:46.359Z,49.40
2023-02-06T03:35:25.282Z,62.03
2023-02-06T03:40:31.660Z,47.13
2023-02-06T03:45:42.089Z,58.00
2023-02-06T03:50:59.209Z,47.03
2023-02-06T03:56:15.443Z,58.63
2023-02-06T04:01:22.932Z,63.45
2023-02-06T04:06:31.665Z,55.20
2023-02-06T04:11:38.103Z,54.80
2023-02-06T04:21:50.791Z,59.20
2023-02-06T04:27:01.541Z,52.97
2023-02-06T04:32:08.127Z,61.75
2023-02-06T04:37:17.804Z,56.42
2023-02-06T04:42:23.306Z,52.95
2023-02-06T04:47:29.035Z,53.30
2023-02-06T04:52:34.601Z,66.73
2023-02-06T04:57:40.898Z,60.90
2023-02-06T05:07:52.359Z,57.05
2023-02-06T05:12:58.307Z,55.90
2023-02-06T05:18:04.205Z,65.13
2023-02-06T05:28:22.224Z,67.70
2023-02-06T05:33:30.665Z,60.72
2023-02-06T05:38:39.116Z,51.47
2023-02-06T05:43:45.249Z,64.82
2023-02-06T05:48:51.453Z,49.47
2023-02-06T05:59:05.189Z,25.35
2023-02-06T06:04:13.770Z,57.20
2023-02-06T06:26:42.611Z,71.18
2023-02-06T06:31:49.445Z,66.93
2023-02-06T06:36:56.396Z,63.20
2023-02-06T06:42:03.178Z,68.35
2023-02-06T06:47:09.238Z,67.45
2023-02-06T06:52:24.554Z,67.18
2023-02-06T06:57:34.184Z,35.20
2023-02-06T07:02:40.449Z,58.40
2023-02-06T07:12:55.512Z,57.35
2023-02-06T07:18:02.172Z,43.05
2023-02-06T07:23:21.453Z,47.08
2023-02-06T07:28:30.636Z,55.20
2023-02-06T07:33:40.607Z,50.10
2023-02-06T07:38:46.873Z,66.43
2023-02-06T07:43:53.667Z,72.80
2023-02-06T07:49:01.140Z,60.50
2023-02-06T07:54:07.324Z,71.00
2023-02-06T07:59:14.011Z,69.13
2023-02-06T08:04:27.179Z,67.97
2023-02-06T08:09:34.029Z,75.95
2023-02-06T08:14:40.653Z,72.47
2023-02-06T08:19:47.410Z,70.07
2023-02-06T08:24:53.300Z,70.10
2023-02-06T08:30:01.261Z,68.88
2023-02-06T08:35:08.080Z,61.92
2023-02-06T08:40:15.465Z,58.78
2023-02-06T08:45:21.880Z,58.67
2023-02-06T08:50:28.461Z,55.78
2023-02-06T09:00:40.450Z,62.78
2023-02-06T09:05:46.850Z,52.30
2023-02-06T09:10:53.314Z,58.13
2023-02-06T09:16:00.649Z,49.47
2023-02-06T09:21:13.328Z,55.83
2023-02-06T09:26:22.045Z,52.78
2023-02-06T09:31:32.357Z,48.88
2023-02-06T09:36:39.214Z,53.00
2023-02-06T09:42:19.097Z,50.42
2023-02-06T09:47:34.773Z,49.72
2023-02-06T09:52:57.179Z,50.72
2023-02-06T09:58:39.948Z,51.97
2023-02-06T10:04:03.787Z,46.42
2023-02-06T10:09:22.700Z,43.83
2023-02-06T10:14:51.544Z,45.38
2023-02-06T10:20:08.354Z,50.50
2023-02-06T10:25:42.839Z,49.15
2023-02-06T10:31:02.798Z,52.72
2023-02-06T10:36:47.372Z,50.17
2023-02-06T10:42:20.165Z,50.13
2023-02-06T10:48:00.765Z,48.85
2023-02-06T10:53:24.144Z,48.25
2023-02-06T10:58:44.807Z,48.92
2023-02-06T11:04:20.023Z,50.17
2023-02-06T11:09:27.007Z,47.28
2023-02-06T11:14:41.011Z,48.25
2023-02-06T11:19:47.504Z,46.00
2023-02-06T11:30:36.364Z,42.80
2023-02-06T11:35:56.677Z,50.05
2023-02-06T11:41:19.741Z,46.67
2023-02-06T11:46:37.083Z,48.15
2023-02-06T11:52:02.065Z,44.75
2023-02-06T11:57:11.286Z,42.15
2023-02-06T12:02:38.382Z,43.75
2023-02-06T12:07:55.841Z,39.33
2023-02-06T12:13:23.459Z,43.45
2023-02-06T12:18:40.152Z,39.40
2023-02-06T12:24:03.597Z,42.08
2023-02-06T12:29:30.007Z,43.88
2023-02-06T12:35:04.617Z,41.80
2023-02-06T12:40:40.436Z,39.67
2023-02-06T12:45:59.641Z,43.08
2023-02-06T12:51:14.936Z,41.15
2023-02-06T12:56:53.378Z,40.92
2023-02-06T13:02:32.712Z,37.40
2023-02-06T13:07:49.689Z,35.75
2023-02-06T13:13:06.792Z,35.55
2023-02-06T13:18:52.308Z,36.92
2023-02-06T13:24:06.072Z,35.67
2023-02-06T13:30:02.498Z,33.33
2023-02-06T13:35:28.407Z,34.83
2023-02-06T13:40:47.670Z,31.13
2023-02-06T13:46:16.224Z,28.60
2023-02-06T13:52:09.502Z,31.58
2023-02-06T13:58:00.583Z,33.38
2023-02-06T14:03:36.679Z,31.58
2023-02-06T14:09:16.283Z,28.95
2023-02-06T14:14:52.171Z,27.95
2023-02-06T14:20:19.152Z,28.42
2023-02-06T14:25:46.307Z,29.17
2023-02-06T14:31:28.780Z,27.63
2023-02-06T14:37:35.322Z,27.13
2023-02-06T14:43:04.765Z,28.35
2023-02-06T14:54:10.212Z,26.23
2023-02-06T14:59:30.403Z,25.77
2023-02-06T15:05:02.247Z,24.60
2023-02-06T15:10:13.012Z,25.08
2023-02-06T15:15:35.087Z,21.80
2023-02-06T15:20:49.294Z,19.80
2023-02-06T15:26:22.791Z,22.45
2023-02-06T15:31:39.064Z,23.48
2023-02-06T15:36:49.369Z,20.25
2023-02-06T15:41:58.806Z,20.45
2023-02-06T15:47:15.849Z,21.88
2023-02-06T15:52:42.883Z,20.13
2023-02-06T16:03:47.929Z,21.58
2023-02-06T16:09:15.954Z,20.98
2023-02-06T16:14:47.055Z,21.77
2023-02-06T16:20:06.975Z,21.27
2023-02-06T16:26:21.477Z,22.27
2023-02-06T16:31:30.219Z,21.10
2023-02-06T16:36:37.058Z,21.00
2023-02-06T16:41:44.921Z,20.83
2023-02-06T16:46:51.642Z,19.80
2023-02-06T16:51:57.932Z,20.70
2023-02-06T16:57:32.482Z,20.70
2023-02-06T17:02:38.708Z,20.80
2023-02-06T17:07:45.810Z,20.33
2023-02-06T17:12:52.346Z,21.17
2023-02-06T17:23:04.361Z,22.00
2023-02-06T17:28:13.237Z,22.83
2023-02-06T17:33:20.018Z,21.42
2023-02-06T17:38:25.927Z,20.90
2023-02-06T17:43:31.916Z,19.77
2023-02-06T17:48:41.199Z,20.20
2023-02-06T17:53:47.047Z,20.45
2023-02-06T17:58:53.367Z,21.33
2023-02-06T18:09:18.436Z,21.27
2023-02-06T18:14:24.997Z,19.27
2023-02-06T18:19:32.283Z,23.33
2023-02-06T18:24:38.144Z,21.02
2023-02-06T18:29:50.197Z,22.38
2023-02-06T18:34:56.876Z,20.35
2023-02-06T18:45:10.182Z,19.40
2023-02-06T18:50:16.993Z,23.38
2023-02-06T18:55:23.180Z,23.15
2023-02-06T19:05:38.970Z,22.25
2023-02-06T19:10:44.912Z,23.70
2023-02-06T19:15:51.504Z,20.48
2023-02-06T19:20:57.732Z,23.52
2023-02-06T19:31:12.266Z,25.25
2023-02-06T19:36:19.636Z,23.73
2023-02-06T19:41:28.227Z,25.20
2023-02-06T19:46:34.735Z,22.75
2023-02-06T19:56:52.139Z,27.73
2023-02-06T20:02:01.808Z,24.33
2023-02-06T20:07:08.201Z,24.27
2023-02-06T20:12:15.408Z,24.52
2023-02-06T20:17:21.727Z,25.08
2023-02-06T20:22:27.718Z,25.83
2023-02-06T20:27:33.689Z,23.38
2023-02-06T20:32:39.816Z,27.00
2023-02-06T20:42:51.786Z,25.33
2023-02-06T20:53:15.943Z,23.50
2023-02-06T20:58:22.766Z,27.67
2023-02-06T21:03:29.124Z,26.50
2023-02-06T21:08:36.566Z,24.02
2023-02-06T21:13:42.968Z,22.65
2023-02-06T21:18:49.293Z,21.55
2023-02-06T21:23:58.738Z,25.27
2023-02-06T21:29:06.157Z,30.48
2023-02-06T21:34:23.588Z,26.85
2023-02-06T21:39:30.304Z,30.42
2023-02-06T21:44:38.686Z,21.92
2023-02-06T21:49:44.605Z,24.77
2023-02-06T21:54:50.867Z,32.63
2023-02-06T21:59:57.309Z,25.38
2023-02-06T22:05:03.648Z,27.40
2023-02-06T22:15:15.400Z,25.05
2023-02-06T22:20:21.625Z,27.88
2023-02-06T22:25:28.586Z,27.20
2023-02-06T22:30:34.442Z,30.50
2023-02-06T22:35:42.190Z,30.42
2023-02-06T22:40:48.318Z,29.08
2023-02-06T22:51:08.038Z,32.20
2023-02-06T22:56:29.370Z,35.40
2023-02-06T23:01:42.230Z,33.72
2023-02-06T23:06:49.621Z,29.33
2023-02-06T23:11:57.488Z,27.55
2023-02-06T23:17:04.701Z,30.90
2023-02-06T23:22:12.240Z,34.60
2023-02-06T23:27:18.391Z,38.25
2023-02-06T23:37:29.963Z,37.53
2023-02-06T23:42:36.303Z,31.92
2023-02-06T23:47:42.509Z,32.58
2023-02-06T23:52:48.874Z,28.25
2023-02-06T23:57:54.724Z,32.10
